sensor_id;sensor_type;location;lat;lon;timestamp;pressure;altitude;pressure_sealevel;temperature;humidity
48926;BME280;39838;59.938;30.642;2022-12-08T00:00:15;99823.44;;;-4.89;74.64
48926;BME280;39838;59.938;30.642;2022-12-08T00:02:42;99851.31;;;-4.73;74.78
48926;BME280;39838;59.938;30.642;2022-12-08T00:05:09;99851.44;;;-4.70;74.45
48926;BME280;39838;59.938;30.642;2022-12-08T00:07:53;99843.78;;;-4.71;73.92
48926;BME280;39838;59.938;30.642;2022-12-08T00:10:38;99849.78;;;-4.69;74.13
48926;BME280;39838;59.938;30.642;2022-12-08T00:13:09;99842.97;;;-4.70;74.61
48926;BME280;39838;59.938;30.642;2022-12-08T00:15:36;99839.44;;;-4.74;74.81
48926;BME280;39838;59.938;30.642;2022-12-08T00:18:04;99835.31;;;-4.72;74.38
48926;BME280;39838;59.938;30.642;2022-12-08T00:20:31;99819.78;;;-4.78;74.53
48926;BME280;39838;59.938;30.642;2022-12-08T00:22:58;99826.16;;;-4.68;74.64
48926;BME280;39838;59.938;30.642;2022-12-08T00:25:25;99829.50;;;-4.69;74.25
48926;BME280;39838;59.938;30.642;2022-12-08T00:27:52;99827.13;;;-4.66;74.26
48926;BME280;39838;59.938;30.642;2022-12-08T00:30:21;99821.09;;;-4.68;74.72
48926;BME280;39838;59.938;30.642;2022-12-08T00:32:48;99826.97;;;-4.69;74.36
48926;BME280;39838;59.938;30.642;2022-12-08T00:35:15;99816.63;;;-4.74;74.33
48926;BME280;39838;59.938;30.642;2022-12-08T00:37:42;99818.66;;;-4.67;74.89
48926;BME280;39838;59.938;30.642;2022-12-08T00:40:10;99820.69;;;-4.59;74.36
48926;BME280;39838;59.938;30.642;2022-12-08T00:42:38;99792.78;;;-4.77;74.80
48926;BME280;39838;59.938;30.642;2022-12-08T00:45:06;99812.53;;;-4.54;74.33
48926;BME280;39838;59.938;30.642;2022-12-08T00:47:35;99820.78;;;-4.58;74.35
48926;BME280;39838;59.938;30.642;2022-12-08T00:50:02;99809.59;;;-4.61;74.49
48926;BME280;39838;59.938;30.642;2022-12-08T00:52:29;99813.00;;;-4.61;75.15
48926;BME280;39838;59.938;30.642;2022-12-08T00:54:57;99810.63;;;-4.58;74.95
48926;BME280;39838;59.938;30.642;2022-12-08T00:57:24;99792.59;;;-4.64;74.99
48926;BME280;39838;59.938;30.642;2022-12-08T00:59:51;99817.31;;;-4.60;74.45
48926;BME280;39838;59.938;30.642;2022-12-08T01:02:18;99816.34;;;-4.62;75.23
48926;BME280;39838;59.938;30.642;2022-12-08T01:04:46;99816.34;;;-4.62;75.26
48926;BME280;39838;59.938;30.642;2022-12-08T01:07:13;99818.06;;;-4.61;75.43
48926;BME280;39838;59.938;30.642;2022-12-08T01:09:41;99821.63;;;-4.57;75.09
48926;BME280;39838;59.938;30.642;2022-12-08T01:12:08;99818.25;;;-4.58;75.09
48926;BME280;39838;59.938;30.642;2022-12-08T01:14:35;99812.53;;;-4.54;75.29
48926;BME280;39838;59.938;30.642;2022-12-08T01:17:03;99812.53;;;-4.54;74.58
48926;BME280;39838;59.938;30.642;2022-12-08T01:19:30;99804.03;;;-4.54;74.88
48926;BME280;39838;59.938;30.642;2022-12-08T01:21:58;99810.13;;;-4.51;74.84
48926;BME280;39838;59.938;30.642;2022-12-08T01:24:25;99815.50;;;-4.45;74.69
48926;BME280;39838;59.938;30.642;2022-12-08T01:26:52;99802.03;;;-4.44;75.34
48926;BME280;39838;59.938;30.642;2022-12-08T01:29:19;99802.97;;;-4.42;74.99
48926;BME280;39838;59.938;30.642;2022-12-08T01:31:47;99798.91;;;-4.38;74.73
48926;BME280;39838;59.938;30.642;2022-12-08T01:34:14;99802.91;;;-4.43;75.14
48926;BME280;39838;59.938;30.642;2022-12-08T01:36:41;99803.69;;;-4.44;74.88
48926;BME280;39838;59.938;30.642;2022-12-08T01:39:13;99748.75;;;-4.61;75.11
48926;BME280;39838;59.938;30.642;2022-12-08T01:41:41;99796.22;;;-4.41;74.67
48926;BME280;39838;59.938;30.642;2022-12-08T01:47:14;99791.09;;;-4.43;74.26
48926;BME280;39838;59.938;30.642;2022-12-08T01:49:41;99801.16;;;-4.44;74.81
48926;BME280;39838;59.938;30.642;2022-12-08T01:52:12;99795.84;;;-4.49;74.91
48926;BME280;39838;59.938;30.642;2022-12-08T01:54:45;99783.47;;;-4.43;74.90
48926;BME280;39838;59.938;30.642;2022-12-08T01:57:16;99789.22;;;-4.47;75.17
48926;BME280;39838;59.938;30.642;2022-12-08T01:59:47;99796.94;;;-4.44;74.88
48926;BME280;39838;59.938;30.642;2022-12-08T02:02:15;99791.88;;;-4.44;75.28
48926;BME280;39838;59.938;30.642;2022-12-08T02:04:43;99794.56;;;-4.41;74.93
48926;BME280;39838;59.938;30.642;2022-12-08T02:07:11;99750.34;;;-4.63;75.38
48926;BME280;39838;59.938;30.642;2022-12-08T02:09:39;99789.66;;;-4.37;75.20
48926;BME280;39838;59.938;30.642;2022-12-08T02:12:09;99798.13;;;-4.37;75.21
48926;BME280;39838;59.938;30.642;2022-12-08T02:14:58;99800.59;;;-4.38;75.06
48926;BME280;39838;59.938;30.642;2022-12-08T02:17:37;99769.94;;;-4.43;75.41
48926;BME280;39838;59.938;30.642;2022-12-08T02:20:37;99776.16;;;-4.36;75.39
48926;BME280;39838;59.938;30.642;2022-12-08T02:23:16;99775.22;;;-4.38;75.19
48926;BME280;39838;59.938;30.642;2022-12-08T02:26:07;99780.50;;;-4.34;75.21
48926;BME280;39838;59.938;30.642;2022-12-08T02:32:00;99778.75;;;-4.35;75.35
48926;BME280;39838;59.938;30.642;2022-12-08T02:34:35;99779.56;;;-4.36;75.63
48926;BME280;39838;59.938;30.642;2022-12-08T02:37:09;99744.09;;;-4.54;75.66
48926;BME280;39838;59.938;30.642;2022-12-08T02:39:43;99779.72;;;-4.33;75.01
48926;BME280;39838;59.938;30.642;2022-12-08T02:42:20;99776.53;;;-4.29;75.78
48926;BME280;39838;59.938;30.642;2022-12-08T02:44:55;99769.50;;;-4.34;75.75
48926;BME280;39838;59.938;30.642;2022-12-08T02:47:24;99736.72;;;-4.48;75.86
48926;BME280;39838;59.938;30.642;2022-12-08T02:49:55;99773.41;;;-4.23;75.53
48926;BME280;39838;59.938;30.642;2022-12-08T02:52:43;99776.75;;;-4.24;75.15
48926;BME280;39838;59.938;30.642;2022-12-08T02:55:23;99762.03;;;-4.31;75.31
48926;BME280;39838;59.938;30.642;2022-12-08T02:58:14;99724.84;;;-4.49;75.55
48926;BME280;39838;59.938;30.642;2022-12-08T03:00:58;99777.63;;;-4.24;75.60
48926;BME280;39838;59.938;30.642;2022-12-08T03:03:36;99775.94;;;-4.23;75.70
48926;BME280;39838;59.938;30.642;2022-12-08T03:06:13;99779.50;;;-4.20;75.69
48926;BME280;39838;59.938;30.642;2022-12-08T03:08:50;99775.31;;;-4.19;74.89
48926;BME280;39838;59.938;30.642;2022-12-08T03:11:20;99772.91;;;-4.16;75.79
48926;BME280;39838;59.938;30.642;2022-12-08T03:13:53;99768.56;;;-4.19;75.15
48926;BME280;39838;59.938;30.642;2022-12-08T03:16:24;99777.16;;;-4.15;75.38
48926;BME280;39838;59.938;30.642;2022-12-08T03:18:55;99771.16;;;-4.17;75.25
48926;BME280;39838;59.938;30.642;2022-12-08T03:21:27;99771.16;;;-4.17;75.38
48926;BME280;39838;59.938;30.642;2022-12-08T03:23:55;99778.13;;;-4.13;75.38
48926;BME280;39838;59.938;30.642;2022-12-08T03:26:27;99789.84;;;-4.15;75.61
48926;BME280;39838;59.938;30.642;2022-12-08T03:28:56;99774.63;;;-4.15;75.62
48926;BME280;39838;59.938;30.642;2022-12-08T03:31:25;99765.28;;;-4.16;75.02
48926;BME280;39838;59.938;30.642;2022-12-08T03:33:56;99753.13;;;-4.23;75.12
48926;BME280;39838;59.938;30.642;2022-12-08T03:36:25;99770.78;;;-4.07;74.81
48926;BME280;39838;59.938;30.642;2022-12-08T03:38:53;99773.31;;;-4.07;74.77
48926;BME280;39838;59.938;30.642;2022-12-08T03:41:21;99773.19;;;-4.10;74.82
48926;BME280;39838;59.938;30.642;2022-12-08T03:43:50;99770.78;;;-4.07;74.97
48926;BME280;39838;59.938;30.642;2022-12-08T03:46:18;99762.53;;;-4.03;74.80
48926;BME280;39838;59.938;30.642;2022-12-08T03:48:46;99765.78;;;-4.05;74.82
48926;BME280;39838;59.938;30.642;2022-12-08T03:51:14;99770.72;;;-4.08;74.41
48926;BME280;39838;59.938;30.642;2022-12-08T03:53:44;99752.88;;;-4.10;74.55
48926;BME280;39838;59.938;30.642;2022-12-08T03:56:23;99764.94;;;-4.06;75.02
48926;BME280;39838;59.938;30.642;2022-12-08T03:58:51;99764.78;;;-4.09;74.46
48926;BME280;39838;59.938;30.642;2022-12-08T04:01:19;99758.97;;;-4.06;74.49
48926;BME280;39838;59.938;30.642;2022-12-08T04:03:46;99758.75;;;-4.11;75.30
48926;BME280;39838;59.938;30.642;2022-12-08T04:06:14;99750.28;;;-4.12;75.02
48926;BME280;39838;59.938;30.642;2022-12-08T04:08:42;99753.88;;;-4.06;74.50
48926;BME280;39838;59.938;30.642;2022-12-08T04:11:10;99737.38;;;-4.16;75.02
48926;BME280;39838;59.938;30.642;2022-12-08T04:13:38;99752.03;;;-4.10;74.69
48926;BME280;39838;59.938;30.642;2022-12-08T04:16:06;99755.44;;;-4.10;74.33
48926;BME280;39838;59.938;30.642;2022-12-08T04:18:34;99749.53;;;-4.09;74.64
48926;BME280;39838;59.938;30.642;2022-12-08T04:21:01;99753.00;;;-4.07;74.86
48926;BME280;39838;59.938;30.642;2022-12-08T04:23:28;99746.22;;;-4.08;74.78
48926;BME280;39838;59.938;30.642;2022-12-08T04:25:57;99747.06;;;-4.07;74.45
48926;BME280;39838;59.938;30.642;2022-12-08T04:28:24;99742.75;;;-4.10;74.36
48926;BME280;39838;59.938;30.642;2022-12-08T04:30:53;99741.88;;;-4.10;74.51
48926;BME280;39838;59.938;30.642;2022-12-08T04:33:21;99740.19;;;-4.10;74.33
48926;BME280;39838;59.938;30.642;2022-12-08T04:35:48;99741.06;;;-4.09;74.54
48926;BME280;39838;59.938;30.642;2022-12-08T04:38:15;99729.19;;;-4.10;74.44
48926;BME280;39838;59.938;30.642;2022-12-08T04:40:43;99738.47;;;-4.11;73.95
48926;BME280;39838;59.938;30.642;2022-12-08T04:43:11;99725.84;;;-4.09;73.63
48926;BME280;39838;59.938;30.642;2022-12-08T04:45:39;99718.81;;;-4.15;73.54
48926;BME280;39838;59.938;30.642;2022-12-08T04:48:06;99723.91;;;-4.15;73.60
48926;BME280;39838;59.938;30.642;2022-12-08T04:50:34;99723.81;;;-4.17;73.36
48926;BME280;39838;59.938;30.642;2022-12-08T04:53:01;99728.84;;;-4.18;73.74
48926;BME280;39838;59.938;30.642;2022-12-08T04:55:28;99724.63;;;-4.18;73.85
48926;BME280;39838;59.938;30.642;2022-12-08T04:57:55;99728.84;;;-4.18;73.40
48926;BME280;39838;59.938;30.642;2022-12-08T05:00:24;99722.09;;;-4.18;73.70
48926;BME280;39838;59.938;30.642;2022-12-08T05:02:51;99723.78;;;-4.18;73.67
48926;BME280;39838;59.938;30.642;2022-12-08T05:05:18;99727.97;;;-4.19;73.27
48926;BME280;39838;59.938;30.642;2022-12-08T05:07:45;99718.69;;;-4.18;73.04
48926;BME280;39838;59.938;30.642;2022-12-08T05:10:12;99722.03;;;-4.19;73.14
48926;BME280;39838;59.938;30.642;2022-12-08T05:12:39;99721.06;;;-4.21;73.56
48926;BME280;39838;59.938;30.642;2022-12-08T05:15:07;99715.81;;;-4.26;73.90
48926;BME280;39838;59.938;30.642;2022-12-08T05:17:36;99709.06;;;-4.25;73.44
48926;BME280;39838;59.938;30.642;2022-12-08T05:20:04;99713.28;;;-4.26;73.74
48926;BME280;39838;59.938;30.642;2022-12-08T05:22:31;99708.91;;;-4.28;73.51
48926;BME280;39838;59.938;30.642;2022-12-08T05:24:58;99703.78;;;-4.30;74.23
48926;BME280;39838;59.938;30.642;2022-12-08T05:27:26;99718.41;;;-4.24;73.94
48926;BME280;39838;59.938;30.642;2022-12-08T05:29:56;99716.66;;;-4.25;73.74
48926;BME280;39838;59.938;30.642;2022-12-08T05:32:23;99713.19;;;-4.27;74.50
48926;BME280;39838;59.938;30.642;2022-12-08T05:34:51;99709.72;;;-4.29;74.85
48926;BME280;39838;59.938;30.642;2022-12-08T05:37:18;99711.31;;;-4.31;74.93
48926;BME280;39838;59.938;30.642;2022-12-08T05:39:45;99716.38;;;-4.31;75.20
48926;BME280;39838;59.938;30.642;2022-12-08T05:42:12;99725.44;;;-4.36;75.14
48926;BME280;39838;59.938;30.642;2022-12-08T05:44:40;99721.16;;;-4.37;74.92
48926;BME280;39838;59.938;30.642;2022-12-08T05:47:07;99725.66;;;-4.32;75.54
48926;BME280;39838;59.938;30.642;2022-12-08T05:49:34;99724.06;;;-4.30;75.33
48926;BME280;39838;59.938;30.642;2022-12-08T05:52:02;99718.63;;;-4.37;75.54
48926;BME280;39838;59.938;30.642;2022-12-08T05:54:30;99713.16;;;-4.47;75.38
48926;BME280;39838;59.938;30.642;2022-12-08T05:56:57;99717.25;;;-4.49;75.78
48926;BME280;39838;59.938;30.642;2022-12-08T05:59:24;99718.84;;;-4.51;75.10
48926;BME280;39838;59.938;30.642;2022-12-08T06:01:51;99714.78;;;-4.47;75.91
48926;BME280;39838;59.938;30.642;2022-12-08T06:04:18;99710.44;;;-4.50;75.60
48926;BME280;39838;59.938;30.642;2022-12-08T06:06:46;99718.13;;;-4.48;75.20
48926;BME280;39838;59.938;30.642;2022-12-08T06:09:15;99716.31;;;-4.51;75.27
48926;BME280;39838;59.938;30.642;2022-12-08T06:11:42;99710.44;;;-4.50;74.84
48926;BME280;39838;59.938;30.642;2022-12-08T06:14:11;99716.31;;;-4.51;75.58
48926;BME280;39838;59.938;30.642;2022-12-08T06:16:38;99718.84;;;-4.51;75.30
48926;BME280;39838;59.938;30.642;2022-12-08T06:19:05;99720.59;;;-4.50;75.33
48926;BME280;39838;59.938;30.642;2022-12-08T06:21:32;99712.63;;;-4.40;75.09
48926;BME280;39838;59.938;30.642;2022-12-08T06:24:00;99720.09;;;-4.43;74.46
48926;BME280;39838;59.938;30.642;2022-12-08T06:26:28;99720.16;;;-4.41;75.04
48926;BME280;39838;59.938;30.642;2022-12-08T06:28:55;99722.56;;;-4.44;74.48
48926;BME280;39838;59.938;30.642;2022-12-08T06:31:26;99718.22;;;-4.47;74.62
48926;BME280;39838;59.938;30.642;2022-12-08T06:33:54;99708.72;;;-4.51;75.08
48926;BME280;39838;59.938;30.642;2022-12-08T06:36:22;99697.34;;;-4.59;74.89
48926;BME280;39838;59.938;30.642;2022-12-08T06:38:50;99711.38;;;-4.48;75.36
48926;BME280;39838;59.938;30.642;2022-12-08T06:41:18;99699.66;;;-4.46;75.05
48926;BME280;39838;59.938;30.642;2022-12-08T06:43:46;99704.22;;;-4.38;74.65
48926;BME280;39838;59.938;30.642;2022-12-08T06:46:15;99704.22;;;-4.38;74.85
48926;BME280;39838;59.938;30.642;2022-12-08T06:48:42;99705.72;;;-4.42;75.00
48926;BME280;39838;59.938;30.642;2022-12-08T06:51:12;99706.59;;;-4.42;74.94
48926;BME280;39838;59.938;30.642;2022-12-08T06:53:40;99707.84;;;-4.33;74.84
48926;BME280;39838;59.938;30.642;2022-12-08T06:56:07;99703.47;;;-4.18;75.37
48926;BME280;39838;59.938;30.642;2022-12-08T06:58:35;99704.34;;;-4.18;75.04
48926;BME280;39838;59.938;30.642;2022-12-08T07:01:06;99685.03;;;-4.33;75.33
48926;BME280;39838;59.938;30.642;2022-12-08T07:03:33;99703.72;;;-4.31;75.00
48926;BME280;39838;59.938;30.642;2022-12-08T07:06:01;99700.38;;;-4.30;75.16
48926;BME280;39838;59.938;30.642;2022-12-08T07:08:28;99698.63;;;-4.31;75.41
48926;BME280;39838;59.938;30.642;2022-12-08T07:10:55;99700.06;;;-4.36;75.24
48926;BME280;39838;59.938;30.642;2022-12-08T07:13:22;99700.88;;;-4.37;75.63
48926;BME280;39838;59.938;30.642;2022-12-08T07:15:49;99698.06;;;-4.44;75.35
48926;BME280;39838;59.938;30.642;2022-12-08T07:18:18;99698.88;;;-4.45;75.16
48926;BME280;39838;59.938;30.642;2022-12-08T07:20:45;99696.97;;;-4.49;75.06
48926;BME280;39838;59.938;30.642;2022-12-08T07:23:12;99703.94;;;-4.45;75.78
48926;BME280;39838;59.938;30.642;2022-12-08T07:25:39;99702.84;;;-4.32;75.45
48926;BME280;39838;59.938;30.642;2022-12-08T07:28:08;99704.50;;;-4.32;74.76
48926;BME280;39838;59.938;30.642;2022-12-08T07:30:36;99708.56;;;-4.36;75.26
48926;BME280;39838;59.938;30.642;2022-12-08T07:33:03;99712.75;;;-4.36;75.03
48926;BME280;39838;59.938;30.642;2022-12-08T07:35:32;99697.47;;;-4.38;74.46
48926;BME280;39838;59.938;30.642;2022-12-08T07:37:59;99698.13;;;-4.42;74.84
48926;BME280;39838;59.938;30.642;2022-12-08T07:40:27;99708.28;;;-4.42;75.36
48926;BME280;39838;59.938;30.642;2022-12-08T07:42:54;99699.72;;;-4.44;75.25
48926;BME280;39838;59.938;30.642;2022-12-08T07:45:21;99702.50;;;-4.40;75.38
48926;BME280;39838;59.938;30.642;2022-12-08T07:47:49;99701.09;;;-4.33;75.36
48926;BME280;39838;59.938;30.642;2022-12-08T07:50:16;99702.91;;;-4.30;75.28
48926;BME280;39838;59.938;30.642;2022-12-08T07:52:44;99707.84;;;-4.33;74.33
48926;BME280;39838;59.938;30.642;2022-12-08T07:55:11;99700.81;;;-4.39;75.07
48926;BME280;39838;59.938;30.642;2022-12-08T07:57:39;99699.28;;;-4.35;75.37
48926;BME280;39838;59.938;30.642;2022-12-08T08:00:07;99705.31;;;-4.33;74.89
48926;BME280;39838;59.938;30.642;2022-12-08T08:02:34;99704.78;;;-4.26;75.37
48926;BME280;39838;59.938;30.642;2022-12-08T08:05:02;99701.75;;;-4.19;74.90
48926;BME280;39838;59.938;30.642;2022-12-08T08:07:29;99701.06;;;-4.15;75.22
48926;BME280;39838;59.938;30.642;2022-12-08T08:09:58;99702.38;;;-4.05;75.04
48926;BME280;39838;59.938;30.642;2022-12-08T08:12:25;99700.22;;;-3.96;74.75
48926;BME280;39838;59.938;30.642;2022-12-08T08:14:52;99695.44;;;-3.90;74.25
48926;BME280;39838;59.938;30.642;2022-12-08T08:17:19;99699.63;;;-3.91;74.48
48926;BME280;39838;59.938;30.642;2022-12-08T08:19:46;99699.75;;;-3.88;74.08
48926;BME280;39838;59.938;30.642;2022-12-08T08:22:13;99705.69;;;-3.87;74.20
48926;BME280;39838;59.938;30.642;2022-12-08T08:24:41;99697.44;;;-3.83;74.38
48926;BME280;39838;59.938;30.642;2022-12-08T08:27:09;99700.78;;;-3.84;74.26
48926;BME280;39838;59.938;30.642;2022-12-08T08:29:36;99691.44;;;-3.85;73.85
48926;BME280;39838;59.938;30.642;2022-12-08T08:32:04;99686.28;;;-3.87;73.68
48926;BME280;39838;59.938;30.642;2022-12-08T08:34:31;99697.97;;;-3.90;74.08
48926;BME280;39838;59.938;30.642;2022-12-08T08:36:58;99691.09;;;-3.93;74.06
48926;BME280;39838;59.938;30.642;2022-12-08T08:39:25;99683.53;;;-3.91;73.83
48926;BME280;39838;59.938;30.642;2022-12-08T08:41:54;99692.69;;;-3.95;73.99
48926;BME280;39838;59.938;30.642;2022-12-08T08:44:23;99687.47;;;-3.98;74.00
48926;BME280;39838;59.938;30.642;2022-12-08T08:46:50;99676.81;;;-3.91;73.82
48926;BME280;39838;59.938;30.642;2022-12-08T08:49:18;99677.72;;;-3.89;73.91
48926;BME280;39838;59.938;30.642;2022-12-08T08:51:45;99683.06;;;-3.82;73.55
48926;BME280;39838;59.938;30.642;2022-12-08T08:54:12;99687.28;;;-3.83;73.28
48926;BME280;39838;59.938;30.642;2022-12-08T08:56:39;99688.16;;;-3.82;73.58
48926;BME280;39838;59.938;30.642;2022-12-08T08:59:07;99686.69;;;-3.77;73.73
48926;BME280;39838;59.938;30.642;2022-12-08T09:01:36;99691.50;;;-3.64;73.07
48926;BME280;39838;59.938;30.642;2022-12-08T09:04:03;99689.56;;;-3.50;73.58
48926;BME280;39838;59.938;30.642;2022-12-08T09:06:31;99688.09;;;-3.45;73.02
48926;BME280;39838;59.938;30.642;2022-12-08T09:08:58;99686.13;;;-3.32;73.14
48926;BME280;39838;59.938;30.642;2022-12-08T09:11:25;99690.94;;;-3.18;72.29
48926;BME280;39838;59.938;30.642;2022-12-08T09:13:53;99682.63;;;-3.34;72.14
48926;BME280;39838;59.938;30.642;2022-12-08T09:16:21;99679.22;;;-3.34;71.70
48926;BME280;39838;59.938;30.642;2022-12-08T09:18:50;99674.50;;;-3.46;72.13
48926;BME280;39838;59.938;30.642;2022-12-08T09:21:23;99671.19;;;-3.45;72.56
48926;BME280;39838;59.938;30.642;2022-12-08T09:23:52;99655.75;;;-3.49;73.12
48926;BME280;39838;59.938;30.642;2022-12-08T09:26:20;99669.41;;;-3.46;72.64
48926;BME280;39838;59.938;30.642;2022-12-08T09:28:48;99670.72;;;-3.55;72.96
48926;BME280;39838;59.938;30.642;2022-12-08T09:31:15;99663.09;;;-3.55;72.83
48926;BME280;39838;59.938;30.642;2022-12-08T09:33:43;99667.56;;;-3.50;73.19
48926;BME280;39838;59.938;30.642;2022-12-08T09:36:11;99666.69;;;-3.50;73.00
48926;BME280;39838;59.938;30.642;2022-12-08T09:38:39;99658.22;;;-3.51;72.57
48926;BME280;39838;59.938;30.642;2022-12-08T09:41:16;99638.19;;;-3.64;72.72
48926;BME280;39838;59.938;30.642;2022-12-08T09:43:56;99648.47;;;-3.61;73.12
48926;BME280;39838;59.938;30.642;2022-12-08T09:46:27;99611.25;;;-3.80;73.09
48926;BME280;39838;59.938;30.642;2022-12-08T09:48:57;99645.84;;;-3.63;73.42
48926;BME280;39838;59.938;30.642;2022-12-08T09:51:30;99655.59;;;-3.52;73.31
48926;BME280;39838;59.938;30.642;2022-12-08T09:54:02;99658.22;;;-3.51;73.53
48926;BME280;39838;59.938;30.642;2022-12-08T09:56:31;99657.25;;;-3.53;73.07
48926;BME280;39838;59.938;30.642;2022-12-08T09:59:02;99648.66;;;-3.57;73.63
48926;BME280;39838;59.938;30.642;2022-12-08T10:01:31;99654.38;;;-3.41;73.71
48926;BME280;39838;59.938;30.642;2022-12-08T10:03:59;99657.75;;;-3.21;73.57
48926;BME280;39838;59.938;30.642;2022-12-08T10:06:31;99650.50;;;-3.12;73.02
48926;BME280;39838;59.938;30.642;2022-12-08T10:09:11;99647.22;;;-3.10;72.79
48926;BME280;39838;59.938;30.642;2022-12-08T10:11:52;99639.16;;;-3.20;72.75
48926;BME280;39838;59.938;30.642;2022-12-08T10:14:27;99652.72;;;-3.20;72.76
48926;BME280;39838;59.938;30.642;2022-12-08T10:17:01;99639.72;;;-3.27;73.07
48926;BME280;39838;59.938;30.642;2022-12-08T10:19:33;99652.91;;;-3.36;73.25
48926;BME280;39838;59.938;30.642;2022-12-08T10:22:07;99639.03;;;-3.44;73.66
48926;BME280;39838;59.938;30.642;2022-12-08T10:24:41;99573.72;;;-3.87;73.54
48926;BME280;39838;59.938;30.642;2022-12-08T10:27:11;99644.56;;;-3.53;73.83
48926;BME280;39838;59.938;30.642;2022-12-08T10:29:38;99640.28;;;-3.54;73.61
48926;BME280;39838;59.938;30.642;2022-12-08T10:32:13;99643.78;;;-3.52;73.90
48926;BME280;39838;59.938;30.642;2022-12-08T10:34:58;99637.91;;;-3.51;74.07
48926;BME280;39838;59.938;30.642;2022-12-08T10:37:27;99638.06;;;-3.46;73.56
48926;BME280;39838;59.938;30.642;2022-12-08T10:40:04;99634.59;;;-3.48;73.45
48926;BME280;39838;59.938;30.642;2022-12-08T10:42:36;99646.66;;;-3.44;73.54
48926;BME280;39838;59.938;30.642;2022-12-08T10:45:21;99641.06;;;-3.36;73.64
48926;BME280;39838;59.938;30.642;2022-12-08T10:47:56;99634.78;;;-3.24;73.22
48926;BME280;39838;59.938;30.642;2022-12-08T10:50:32;99601.66;;;-3.47;73.45
48926;BME280;39838;59.938;30.642;2022-12-08T10:53:02;99642.00;;;-3.34;73.54
48926;BME280;39838;59.938;30.642;2022-12-08T10:55:39;99649.56;;;-3.35;73.63
48926;BME280;39838;59.938;30.642;2022-12-08T10:58:22;99577.47;;;-3.79;73.85
48926;BME280;39838;59.938;30.642;2022-12-08T11:00:50;99639.09;;;-3.43;74.15
48926;BME280;39838;59.938;30.642;2022-12-08T11:03:22;99628.59;;;-3.50;74.10
48926;BME280;39838;59.938;30.642;2022-12-08T11:05:55;99634.88;;;-3.42;74.41
48926;BME280;39838;59.938;30.642;2022-12-08T11:08:25;99639.09;;;-3.43;74.03
48926;BME280;39838;59.938;30.642;2022-12-08T11:10:52;99638.72;;;-3.52;74.04
48926;BME280;39838;59.938;30.642;2022-12-08T11:13:21;99633.84;;;-3.46;74.20
48926;BME280;39838;59.938;30.642;2022-12-08T11:15:49;99633.00;;;-3.46;74.30
48926;BME280;39838;59.938;30.642;2022-12-08T11:18:26;99631.31;;;-3.46;73.97
48926;BME280;39838;59.938;30.642;2022-12-08T11:21:00;99632.31;;;-3.42;73.82
48926;BME280;39838;59.938;30.642;2022-12-08T11:23:29;99635.78;;;-3.40;73.58
48926;BME280;39838;59.938;30.642;2022-12-08T11:26:02;99619.94;;;-3.35;73.96
48926;BME280;39838;59.938;30.642;2022-12-08T11:28:31;99624.97;;;-3.36;73.49
48926;BME280;39838;59.938;30.642;2022-12-08T11:31:03;99628.94;;;-3.43;73.30
48926;BME280;39838;59.938;30.642;2022-12-08T11:33:32;99627.91;;;-3.46;73.80
48926;BME280;39838;59.938;30.642;2022-12-08T11:36:03;99616.72;;;-3.51;73.67
48926;BME280;39838;59.938;30.642;2022-12-08T11:38:33;99621.84;;;-3.50;73.59
48926;BME280;39838;59.938;30.642;2022-12-08T11:41:08;99619.44;;;-3.47;73.53
48926;BME280;39838;59.938;30.642;2022-12-08T11:43:41;99608.34;;;-3.49;73.68
48926;BME280;39838;59.938;30.642;2022-12-08T11:46:14;99620.25;;;-3.48;73.88
48926;BME280;39838;59.938;30.642;2022-12-08T11:48:47;99616.63;;;-3.53;74.43
48926;BME280;39838;59.938;30.642;2022-12-08T11:51:19;99614.25;;;-3.50;74.04
48926;BME280;39838;59.938;30.642;2022-12-08T11:54:01;99616.44;;;-3.38;74.09
48926;BME280;39838;59.938;30.642;2022-12-08T11:56:35;99611.19;;;-3.41;74.20
48926;BME280;39838;59.938;30.642;2022-12-08T11:59:09;99615.63;;;-3.37;73.85
48926;BME280;39838;59.938;30.642;2022-12-08T12:01:41;99614.59;;;-3.41;73.72
48926;BME280;39838;59.938;30.642;2022-12-08T12:04:16;99619.53;;;-3.45;74.04
48926;BME280;39838;59.938;30.642;2022-12-08T12:07:04;99618.06;;;-3.39;74.06
48926;BME280;39838;59.938;30.642;2022-12-08T12:09:51;99609.13;;;-3.31;74.05
48926;BME280;39838;59.938;30.642;2022-12-08T12:12:33;99582.94;;;-3.49;73.61
48926;BME280;39838;59.938;30.642;2022-12-08T12:18:02;99599.19;;;-3.45;74.17
48926;BME280;39838;59.938;30.642;2022-12-08T12:20:34;99606.72;;;-3.47;74.03
48926;BME280;39838;59.938;30.642;2022-12-08T12:23:06;99581.25;;;-3.69;74.20
48926;BME280;39838;59.938;30.642;2022-12-08T12:25:36;99615.16;;;-3.48;74.48
48926;BME280;39838;59.938;30.642;2022-12-08T12:28:05;99593.97;;;-3.48;74.48
48926;BME280;39838;59.938;30.642;2022-12-08T12:30:50;99608.06;;;-3.36;73.91
48926;BME280;39838;59.938;30.642;2022-12-08T12:33:19;99612.38;;;-3.33;74.12
48926;BME280;39838;59.938;30.642;2022-12-08T12:35:48;99604.97;;;-3.28;74.02
48926;BME280;39838;59.938;30.642;2022-12-08T12:38:22;99606.38;;;-3.14;74.10
48926;BME280;39838;59.938;30.642;2022-12-08T12:41:10;99595.97;;;-3.20;73.13
48926;BME280;39838;59.938;30.642;2022-12-08T12:43:39;99605.06;;;-3.25;73.61
48926;BME280;39838;59.938;30.642;2022-12-08T12:46:41;99614.81;;;-3.15;73.84
48926;BME280;39838;59.938;30.642;2022-12-08T12:52:39;99607.53;;;-3.06;72.78
48926;BME280;39838;59.938;30.642;2022-12-08T12:55:50;99602.53;;;-3.25;73.08
48926;BME280;39838;59.938;30.642;2022-12-08T12:58:34;99605.88;;;-3.26;73.12
48926;BME280;39838;59.938;30.642;2022-12-08T13:04:15;99598.00;;;-3.53;73.30
48926;BME280;39838;59.938;30.642;2022-12-08T13:06:46;99588.28;;;-3.64;73.87
48926;BME280;39838;59.938;30.642;2022-12-08T13:09:23;99570.03;;;-3.74;73.97
48926;BME280;39838;59.938;30.642;2022-12-08T13:11:54;99605.50;;;-3.57;74.92
48926;BME280;39838;59.938;30.642;2022-12-08T13:14:35;99590.75;;;-3.65;74.90
48926;BME280;39838;59.938;30.642;2022-12-08T13:17:06;99592.31;;;-3.48;74.77
48926;BME280;39838;59.938;30.642;2022-12-08T13:19:38;99594.03;;;-3.47;73.92
48926;BME280;39838;59.938;30.642;2022-12-08T13:28:28;99597.53;;;-3.45;74.33